createdAt,value
2022-10-16T00:01:41.695Z,100516.66
2022-10-16T00:04:09.599Z,100516.25
2022-10-16T00:06:36.596Z,100519.94
2022-10-16T00:09:03.873Z,100531.06
2022-10-16T00:11:34.571Z,100524.22
2022-10-16T00:14:04.361Z,100540.22
2022-10-16T00:16:32.367Z,100542.28
2022-10-16T00:18:59.606Z,100547.84
2022-10-16T00:21:29.909Z,100550.31
2022-10-16T00:24:07.204Z,100551.28
2022-10-16T00:26:37.206Z,100552.41
2022-10-16T00:29:05.527Z,100551.84
2022-10-16T00:31:32.911Z,100555.25
2022-10-16T00:34:01.379Z,100554.66
2022-10-16T00:36:28.784Z,100557.25
2022-10-16T00:41:33.358Z,100547.13
2022-10-16T00:44:04.282Z,100544.00
2022-10-16T00:46:43.493Z,100559.38
2022-10-16T00:49:17.661Z,100559.38
2022-10-16T00:51:54.665Z,100560.22
2022-10-16T00:54:29.449Z,100559.50
2022-10-16T00:57:01.614Z,100552.69
2022-10-16T00:59:35.517Z,100557.53
2022-10-16T01:02:05.755Z,100567.94
2022-10-16T01:04:43.648Z,100557.22
2022-10-16T01:07:47.024Z,100560.09
2022-10-16T01:10:41.068Z,100556.09
2022-10-16T01:13:12.886Z,100565.19
2022-10-16T01:15:52.004Z,100570.91
2022-10-16T01:18:43.007Z,100583.69
2022-10-16T01:21:28.930Z,100574.28
2022-10-16T01:24:16.709Z,100572.47
2022-10-16T01:26:59.055Z,100573.56
2022-10-16T01:29:50.783Z,100565.59
2022-10-16T01:32:31.841Z,100564.19
2022-10-16T01:35:19.851Z,100568.28
2022-10-16T01:38:09.442Z,100567.56
2022-10-16T01:40:40.757Z,100567.97
2022-10-16T01:43:15.903Z,100562.56
2022-10-16T01:45:45.019Z,100554.31
2022-10-16T01:48:17.922Z,100560.13
2022-10-16T01:51:09.975Z,100552.84
2022-10-16T01:53:38.206Z,100564.94
2022-10-16T01:56:09.693Z,100569.03
2022-10-16T01:58:43.545Z,100581.66
2022-10-16T02:01:14.391Z,100576.41
2022-10-16T02:03:44.306Z,100575.69
2022-10-16T02:06:11.447Z,100580.56
2022-10-16T02:08:40.115Z,100577.84
2022-10-16T02:11:07.491Z,100579.53
2022-10-16T02:13:56.910Z,100572.31
2022-10-16T02:16:41.227Z,100579.72
2022-10-16T02:19:14.288Z,100571.59
2022-10-16T02:21:51.592Z,100582.59
2022-10-16T02:24:55.985Z,100575.34
2022-10-16T02:27:55.258Z,100574.94
2022-10-16T02:30:27.200Z,100567.25
2022-10-16T02:32:54.658Z,100567.25
2022-10-16T02:35:23.489Z,100578.22
2022-10-16T02:37:51.369Z,100571.94
2022-10-16T02:40:21.572Z,100572.81
2022-10-16T02:42:53.830Z,100582.63
2022-10-16T02:45:23.482Z,100575.66
2022-10-16T02:47:50.738Z,100566.09
2022-10-16T02:50:18.029Z,100571.25
2022-10-16T02:52:45.162Z,100563.41
2022-10-16T02:55:12.128Z,100567.97
2022-10-16T02:57:41.215Z,100570.94
2022-10-16T03:00:14.816Z,100581.91
2022-10-16T03:02:42.335Z,100572.00
2022-10-16T03:05:10.615Z,100571.16
2022-10-16T03:07:37.738Z,100559.47
2022-10-16T03:10:05.341Z,100575.09
2022-10-16T03:12:32.615Z,100569.66
2022-10-16T03:14:59.631Z,100577.75
2022-10-16T03:17:27.205Z,100562.50
2022-10-16T03:19:54.374Z,100576.59
2022-10-16T03:22:21.643Z,100567.19
2022-10-16T03:24:48.619Z,100556.78
2022-10-16T03:27:15.858Z,100574.00
2022-10-16T03:29:42.771Z,100575.47
2022-10-16T03:32:09.803Z,100568.50
2022-10-16T03:34:36.745Z,100576.31
2022-10-16T03:37:03.969Z,100582.75
2022-10-16T03:39:30.930Z,100577.63
2022-10-16T03:41:57.967Z,100588.06
2022-10-16T03:44:24.930Z,100585.66
2022-10-16T03:46:52.013Z,100583.53
2022-10-16T03:49:18.954Z,100573.56
2022-10-16T03:51:46.128Z,100588.22
2022-10-16T03:54:13.167Z,100591.41
2022-10-16T03:56:40.148Z,100582.81
2022-10-16T03:59:07.069Z,100594.81
2022-10-16T04:01:34.203Z,100600.94
2022-10-16T04:04:01.366Z,100596.81
2022-10-16T04:06:28.367Z,100585.91
2022-10-16T04:08:55.444Z,100576.91
2022-10-16T04:11:22.382Z,100585.75
2022-10-16T04:13:49.590Z,100589.88
2022-10-16T04:16:16.616Z,100599.59
2022-10-16T04:18:43.608Z,100602.28
2022-10-16T04:21:10.727Z,100602.41
2022-10-16T04:23:37.757Z,100601.56
2022-10-16T04:26:04.945Z,100606.25
2022-10-16T04:28:31.922Z,100615.09
2022-10-16T04:30:59.062Z,100594.84
2022-10-16T04:33:26.009Z,100613.09
2022-10-16T04:36:01.682Z,100618.22
2022-10-16T04:38:29.022Z,100617.09
2022-10-16T04:40:56.373Z,100618.78
2022-10-16T04:43:24.574Z,100627.78
2022-10-16T04:45:51.964Z,100623.78
2022-10-16T04:48:19.699Z,100621.91
2022-10-16T04:50:50.353Z,100610.41
2022-10-16T04:53:19.994Z,100614.94
2022-10-16T04:55:47.007Z,100620.91
2022-10-16T04:58:14.050Z,100620.91
2022-10-16T05:00:40.997Z,100626.19
2022-10-16T05:03:09.854Z,100613.94
2022-10-16T05:05:37.456Z,100618.69
2022-10-16T05:08:04.963Z,100613.94
2022-10-16T05:10:32.122Z,100625.66
2022-10-16T05:12:59.220Z,100630.66
2022-10-16T05:15:26.272Z,100626.50
2022-10-16T05:17:56.954Z,100646.72
2022-10-16T05:20:24.453Z,100642.59
2022-10-16T05:22:51.426Z,100631.66
2022-10-16T05:25:19.142Z,100635.06
2022-10-16T05:27:49.500Z,100652.47
2022-10-16T05:30:18.289Z,100640.19
2022-10-16T05:32:52.227Z,100633.94
2022-10-16T05:35:20.399Z,100650.00
2022-10-16T05:37:48.156Z,100646.47
2022-10-16T05:40:16.039Z,100646.19
2022-10-16T05:42:43.050Z,100647.47
2022-10-16T05:45:12.769Z,100658.72
2022-10-16T05:47:40.267Z,100632.91
2022-10-16T05:50:08.048Z,100658.13
2022-10-16T05:52:35.058Z,100651.56
2022-10-16T05:55:02.087Z,100661.72
2022-10-16T05:57:29.360Z,100665.09
2022-10-16T05:59:56.797Z,100673.09
2022-10-16T06:02:24.013Z,100673.09
2022-10-16T06:04:54.686Z,100682.22
2022-10-16T06:07:23.013Z,100679.34
2022-10-16T06:09:54.193Z,100675.09
2022-10-16T06:12:21.516Z,100671.91
2022-10-16T06:14:48.513Z,100677.47
2022-10-16T06:17:16.088Z,100689.75
2022-10-16T06:19:43.129Z,100689.28
2022-10-16T06:22:10.261Z,100705.56
2022-10-16T06:24:37.553Z,100691.16
2022-10-16T06:27:05.882Z,100700.00
2022-10-16T06:29:32.756Z,100696.56
2022-10-16T06:31:59.828Z,100694.03
2022-10-16T06:34:26.930Z,100699.69
2022-10-16T06:36:54.021Z,100703.56
2022-10-16T06:39:20.985Z,100700.75
2022-10-16T06:41:48.065Z,100699.31
2022-10-16T06:44:17.686Z,100717.44
2022-10-16T06:46:44.614Z,100699.47
2022-10-16T06:49:12.623Z,100709.38
2022-10-16T06:51:43.238Z,100714.78
2022-10-16T06:54:10.863Z,100716.69
2022-10-16T06:56:38.516Z,100708.22
2022-10-16T06:59:05.584Z,100726.63
2022-10-16T07:01:33.368Z,100724.50
2022-10-16T07:04:02.968Z,100743.50
2022-10-16T07:06:34.415Z,100749.63
2022-10-16T07:09:05.485Z,100752.91
2022-10-16T07:11:32.629Z,100758.31
2022-10-16T07:13:59.933Z,100770.34
2022-10-16T07:16:29.974Z,100762.91
2022-10-16T07:19:00.724Z,100758.03
2022-10-16T07:21:38.015Z,100784.72
2022-10-16T07:24:13.891Z,100781.75
2022-10-16T07:26:41.979Z,100788.88
2022-10-16T07:29:18.012Z,100803.84
2022-10-16T07:31:46.163Z,100797.59
2022-10-16T07:34:15.324Z,100810.72
2022-10-16T07:39:14.728Z,100802.59
2022-10-16T07:41:41.908Z,100826.53
2022-10-16T07:44:09.452Z,100815.81
2022-10-16T07:46:36.995Z,100814.25
2022-10-16T07:49:04.604Z,100832.69
2022-10-16T07:51:31.889Z,100843.41
2022-10-16T07:54:01.744Z,100849.72
2022-10-16T07:56:28.933Z,100847.84
2022-10-16T07:58:57.266Z,100865.16
2022-10-16T08:01:25.431Z,100868.88
2022-10-16T08:03:53.130Z,100886.44
2022-10-16T08:06:26.726Z,100881.00
2022-10-16T08:08:56.808Z,100891.13
2022-10-16T08:11:24.426Z,100880.63
2022-10-16T08:13:51.660Z,100881.63
2022-10-16T08:16:18.922Z,100875.91
2022-10-16T08:18:46.032Z,100894.97
2022-10-16T08:21:20.392Z,100889.53
2022-10-16T08:23:54.594Z,100893.63
2022-10-16T08:26:27.382Z,100893.28
2022-10-16T08:28:55.542Z,100889.41
2022-10-16T08:31:23.214Z,100895.56
2022-10-16T08:33:50.331Z,100889.09
2022-10-16T08:36:17.905Z,100893.72
2022-10-16T08:38:45.258Z,100894.75
2022-10-16T08:41:27.134Z,100908.03
2022-10-16T08:44:34.581Z,100910.69
2022-10-16T08:47:29.625Z,100915.81
2022-10-16T08:50:02.450Z,100907.84
2022-10-16T08:52:36.831Z,100914.41
2022-10-16T08:55:05.486Z,100921.53
2022-10-16T08:57:33.575Z,100928.88
2022-10-16T09:00:14.104Z,100914.94
2022-10-16T09:03:00.280Z,100922.25
2022-10-16T09:05:49.118Z,100936.63
2022-10-16T09:08:28.356Z,100938.56
2022-10-16T09:11:27.744Z,100939.44
2022-10-16T09:14:13.372Z,100950.34
2022-10-16T09:16:48.805Z,100950.19
2022-10-16T09:19:29.586Z,100937.34
2022-10-16T09:21:57.571Z,100924.78
2022-10-16T09:24:29.319Z,100936.53
2022-10-16T09:26:56.372Z,100942.03
2022-10-16T09:29:25.999Z,100946.97
2022-10-16T09:31:56.022Z,100951.25
2022-10-16T09:34:35.812Z,100947.75
2022-10-16T09:37:10.725Z,100949.94
2022-10-16T09:39:50.218Z,100947.59
2022-10-16T09:42:34.251Z,100935.94
2022-10-16T09:45:01.935Z,100940.63
2022-10-16T09:47:31.299Z,100930.78
2022-10-16T09:50:07.038Z,100931.44
2022-10-16T09:52:34.747Z,100941.78
2022-10-16T09:55:14.417Z,100948.16
2022-10-16T09:57:55.308Z,100952.69
2022-10-16T10:00:24.962Z,100952.50
2022-10-16T10:05:29.700Z,100972.72
2022-10-16T10:08:00.134Z,100957.22
2022-10-16T10:10:33.128Z,100960.69
2022-10-16T10:13:00.505Z,100966.19
2022-10-16T10:15:34.683Z,100962.31
2022-10-16T10:18:04.145Z,100972.69
2022-10-16T10:20:39.111Z,100977.16
2022-10-16T10:23:27.655Z,100982.84
2022-10-16T10:26:19.697Z,100976.31
2022-10-16T10:28:57.168Z,100987.94
2022-10-16T10:31:48.454Z,100993.91
2022-10-16T10:35:09.313Z,100993.69
2022-10-16T10:38:04.912Z,100998.84
2022-10-16T10:40:52.982Z,100998.19
2022-10-16T10:44:17.078Z,101004.00
2022-10-16T10:47:08.949Z,101002.63
2022-10-16T10:50:19.234Z,101007.19
2022-10-16T10:53:23.469Z,101010.09
2022-10-16T10:56:14.375Z,101007.50
2022-10-16T10:59:07.121Z,101014.75
2022-10-16T11:02:15.152Z,101019.41
2022-10-16T11:05:00.501Z,101013.03
2022-10-16T11:07:34.035Z,101013.03
2022-10-16T11:10:17.781Z,101012.84
2022-10-16T11:12:50.610Z,101009.09
2022-10-16T11:15:35.870Z,101016.00
2022-10-16T11:18:28.397Z,101008.41
2022-10-16T11:21:01.670Z,101017.69
2022-10-16T11:23:44.158Z,101018.78
2022-10-16T11:26:27.181Z,101022.34
2022-10-16T11:28:57.285Z,101023.94
2022-10-16T11:31:39.428Z,101030.34
2022-10-16T11:34:30.759Z,101029.84
2022-10-16T11:37:18.272Z,101013.00
2022-10-16T11:39:47.342Z,101021.91
2022-10-16T11:42:38.104Z,101040.75
2022-10-16T11:45:07.956Z,101041.78
2022-10-16T11:47:57.997Z,101034.72
2022-10-16T11:50:45.342Z,101050.69
2022-10-16T11:53:23.072Z,101046.03
2022-10-16T11:55:50.326Z,101047.75
2022-10-16T11:59:07.308Z,101048.09
2022-10-16T12:02:09.574Z,101047.31
2022-10-16T12:04:47.912Z,101044.88
2022-10-16T12:07:27.512Z,101043.09
2022-10-16T12:09:54.466Z,101048.56
2022-10-16T12:12:37.202Z,101057.75
2022-10-16T12:15:25.996Z,101057.16
2022-10-16T12:17:57.879Z,101055.78
2022-10-16T12:20:28.941Z,101065.63
2022-10-16T12:23:05.304Z,101070.56
2022-10-16T12:25:38.594Z,101057.84
2022-10-16T12:28:22.042Z,101069.16
2022-10-16T12:31:09.388Z,101073.22
2022-10-16T12:34:03.585Z,101077.66
2022-10-16T12:36:35.324Z,101065.38
2022-10-16T12:39:02.969Z,101069.59
2022-10-16T12:41:40.732Z,101065.78
2022-10-16T12:44:27.306Z,101062.25
2022-10-16T12:46:54.283Z,101080.91
2022-10-16T12:49:33.417Z,101086.38
2022-10-16T12:52:00.422Z,101080.16
2022-10-16T12:54:45.621Z,101080.81
2022-10-16T12:58:03.328Z,101081.97
2022-10-16T13:00:47.093Z,101076.31
2022-10-16T13:03:32.699Z,101079.78
2022-10-16T13:06:27.017Z,101081.25
2022-10-16T13:09:33.696Z,101075.50
2022-10-16T13:12:19.577Z,101079.47
2022-10-16T13:15:18.621Z,101090.97
2022-10-16T13:18:21.491Z,101093.78
2022-10-16T13:21:00.440Z,101105.31
2022-10-16T13:23:53.152Z,101100.34
2022-10-16T13:26:24.710Z,101103.06
2022-10-16T13:28:51.726Z,101103.00
2022-10-16T13:31:25.104Z,101108.28
2022-10-16T13:34:00.450Z,101108.00
2022-10-16T13:36:43.295Z,101106.56
2022-10-16T13:39:20.200Z,101114.56
2022-10-16T13:41:58.410Z,101112.59
2022-10-16T13:44:25.450Z,101115.97
2022-10-16T13:47:03.856Z,101113.28
2022-10-16T13:49:30.790Z,101124.88
2022-10-16T13:52:01.065Z,101126.38
2022-10-16T13:54:29.803Z,101124.72
2022-10-16T13:57:03.374Z,101127.00
2022-10-16T13:59:41.293Z,101132.63
2022-10-16T14:02:27.703Z,101135.44
2022-10-16T14:04:55.717Z,101141.22
2022-10-16T14:07:32.498Z,101153.06
2022-10-16T14:10:07.035Z,101147.16
2022-10-16T14:12:35.490Z,101136.06
2022-10-16T14:15:03.010Z,101138.94
2022-10-16T14:17:34.030Z,101139.22
2022-10-16T14:20:06.928Z,101150.63
2022-10-16T14:22:42.981Z,101143.28
2022-10-16T14:25:22.462Z,101150.19
2022-10-16T14:28:03.679Z,101158.81
2022-10-16T14:30:33.677Z,101149.84
2022-10-16T14:33:07.505Z,101155.16
2022-10-16T14:35:38.616Z,101145.50
2022-10-16T14:38:15.621Z,101145.50
2022-10-16T14:40:49.230Z,101150.00
2022-10-16T14:43:23.931Z,101141.53
2022-10-16T14:45:57.080Z,101151.38
2022-10-16T14:48:24.828Z,101153.56
2022-10-16T14:50:51.755Z,101138.22
2022-10-16T14:53:18.683Z,101156.59
2022-10-16T14:55:46.039Z,101165.75
2022-10-16T14:58:19.773Z,101170.69
2022-10-16T15:00:47.410Z,101172.28
2022-10-16T15:03:14.626Z,101179.81
2022-10-16T15:05:41.724Z,101178.44
2022-10-16T15:08:08.714Z,101175.88
2022-10-16T15:10:41.944Z,101176.72
2022-10-16T15:13:14.058Z,101174.88
2022-10-16T15:15:50.123Z,101172.63
2022-10-16T15:18:21.244Z,101168.00
2022-10-16T15:20:51.030Z,101172.44
2022-10-16T15:23:21.969Z,101184.59
2022-10-16T15:25:55.228Z,101188.34
2022-10-16T15:28:24.682Z,101191.94
2022-10-16T15:30:54.489Z,101192.28
2022-10-16T15:33:27.941Z,101192.09
2022-10-16T15:35:55.768Z,101194.84
2022-10-16T15:38:24.022Z,101189.72
2022-10-16T15:40:51.752Z,101194.84
2022-10-16T15:43:19.665Z,101207.00
2022-10-16T15:46:02.492Z,101197.41
2022-10-16T15:48:31.319Z,101203.44
2022-10-16T15:50:58.335Z,101196.56
2022-10-16T15:53:25.341Z,101200.19
2022-10-16T15:55:52.456Z,101201.03
2022-10-16T15:58:19.421Z,101209.75
2022-10-16T16:00:46.846Z,101204.63
2022-10-16T16:03:14.426Z,101206.84
2022-10-16T16:05:45.625Z,101204.63
2022-10-16T16:08:13.389Z,101206.00
2022-10-16T16:10:40.277Z,101206.50
2022-10-16T16:13:07.289Z,101203.59
2022-10-16T16:15:34.213Z,101207.34
2022-10-16T16:18:03.219Z,101217.25
2022-10-16T16:20:30.192Z,101210.75
2022-10-16T16:22:57.222Z,101222.59
2022-10-16T16:25:24.221Z,101229.53
2022-10-16T16:27:51.210Z,101227.78
2022-10-16T16:30:20.532Z,101235.72
2022-10-16T16:32:49.700Z,101223.97
2022-10-16T16:35:16.653Z,101228.28
2022-10-16T16:37:43.680Z,101236.13
2022-10-16T16:40:10.694Z,101229.25
2022-10-16T16:42:37.792Z,101237.22
2022-10-16T16:45:05.221Z,101243.31
2022-10-16T16:47:32.148Z,101237.47
2022-10-16T16:49:59.069Z,101233.75
2022-10-16T16:52:26.078Z,101243.84
2022-10-16T16:54:53.186Z,101240.66
2022-10-16T16:57:21.638Z,101255.22
2022-10-16T16:59:51.434Z,101266.22
2022-10-16T17:02:18.622Z,101258.00
2022-10-16T17:04:45.531Z,101265.31
2022-10-16T17:07:12.479Z,101281.13
2022-10-16T17:09:39.378Z,101266.25
2022-10-16T17:12:06.429Z,101275.75
2022-10-16T17:14:33.387Z,101270.66
2022-10-16T17:17:00.402Z,101270.38
2022-10-16T17:19:27.322Z,101285.16
2022-10-16T17:21:54.531Z,101288.88
2022-10-16T17:24:21.769Z,101276.72
2022-10-16T17:26:49.409Z,101284.19
2022-10-16T17:29:18.703Z,101296.78
2022-10-16T17:31:46.173Z,101301.09
2022-10-16T17:34:13.401Z,101312.84
2022-10-16T17:36:44.135Z,101320.03
2022-10-16T17:39:14.271Z,101312.56
2022-10-16T17:41:41.179Z,101314.28
2022-10-16T17:44:08.536Z,101312.56
2022-10-16T17:46:40.040Z,101315.84
2022-10-16T17:49:09.783Z,101320.16
2022-10-16T17:51:36.727Z,101327.91
2022-10-16T17:54:04.016Z,101328.63
2022-10-16T17:56:31.513Z,101325.56
2022-10-16T17:59:01.685Z,101331.59
2022-10-16T18:01:35.767Z,101319.72
2022-10-16T18:04:13.089Z,101310.53
2022-10-16T18:06:41.710Z,101317.53
2022-10-16T18:09:11.126Z,101317.22
2022-10-16T18:11:38.818Z,101343.16
2022-10-16T18:14:06.617Z,101335.84
2022-10-16T18:16:34.051Z,101338.88
2022-10-16T18:19:01.002Z,101339.56
2022-10-16T18:21:28.726Z,101334.69
2022-10-16T18:23:57.293Z,101351.69
2022-10-16T18:26:25.265Z,101350.13
2022-10-16T18:28:54.742Z,101356.69
2022-10-16T18:31:23.113Z,101366.25
2022-10-16T18:33:51.290Z,101359.84
2022-10-16T18:36:32.332Z,101355.13
2022-10-16T18:39:03.199Z,101348.78
2022-10-16T18:41:32.556Z,101356.09
2022-10-16T18:43:59.487Z,101355.38
2022-10-16T18:46:27.233Z,101355.63
2022-10-16T18:48:55.864Z,101355.63
2022-10-16T18:51:32.686Z,101362.78
2022-10-16T18:54:06.537Z,101362.06
2022-10-16T18:56:33.757Z,101352.03
2022-10-16T18:59:03.271Z,101345.13
2022-10-16T19:01:33.254Z,101345.50
2022-10-16T19:04:05.510Z,101348.47
2022-10-16T19:06:39.824Z,101339.00
2022-10-16T19:09:08.022Z,101339.41
2022-10-16T19:11:38.040Z,101336.69
2022-10-16T19:14:08.629Z,101341.13
2022-10-16T19:16:37.190Z,101349.84
2022-10-16T19:19:10.073Z,101344.81
2022-10-16T19:21:40.009Z,101349.38
2022-10-16T19:24:08.723Z,101353.69
2022-10-16T19:26:38.214Z,101347.84
2022-10-16T19:29:09.165Z,101353.97
2022-10-16T19:31:36.060Z,101351.16
2022-10-16T19:34:04.484Z,101352.16
2022-10-16T19:36:34.318Z,101339.22
2022-10-16T19:39:07.657Z,101340.78
2022-10-16T19:41:36.569Z,101350.91
2022-10-16T19:44:07.200Z,101344.47
2022-10-16T19:46:34.762Z,101350.31
2022-10-16T19:49:06.754Z,101349.31
2022-10-16T19:51:34.304Z,101348.63
2022-10-16T19:54:04.748Z,101359.47
2022-10-16T19:56:33.460Z,101355.88
2022-10-16T19:59:01.568Z,101366.88
2022-10-16T20:01:31.632Z,101370.44
2022-10-16T20:03:59.318Z,101346.56
2022-10-16T20:06:26.852Z,101368.72
2022-10-16T20:08:55.417Z,101365.81
2022-10-16T20:11:29.931Z,101371.13
2022-10-16T20:13:57.746Z,101374.72
2022-10-16T20:16:26.373Z,101375.81
2022-10-16T20:18:53.528Z,101374.22
2022-10-16T20:21:24.147Z,101373.34
2022-10-16T20:23:51.531Z,101378.34
2022-10-16T20:26:22.358Z,101379.47
2022-10-16T20:28:49.617Z,101385.88
2022-10-16T20:31:37.323Z,101376.16
2022-10-16T20:34:11.000Z,101378.88
2022-10-16T20:36:40.796Z,101375.41
2022-10-16T20:39:08.828Z,101382.09
2022-10-16T20:41:36.879Z,101378.69
2022-10-16T20:44:04.284Z,101388.91
2022-10-16T20:46:31.228Z,101388.19
2022-10-16T20:49:06.261Z,101386.63
2022-10-16T20:51:38.665Z,101404.59
2022-10-16T20:54:07.395Z,101424.81
2022-10-16T20:56:36.916Z,101440.56
2022-10-16T20:59:05.286Z,101449.44
2022-10-16T21:01:32.656Z,101444.13
2022-10-16T21:04:02.322Z,101456.84
2022-10-16T21:06:31.553Z,101464.13
2022-10-16T21:09:03.234Z,101455.13
2022-10-16T21:14:07.723Z,101462.88
2022-10-16T21:16:35.402Z,101457.44
2022-10-16T21:19:02.641Z,101445.72
2022-10-16T21:21:38.023Z,101446.44
2022-10-16T21:24:06.630Z,101432.28
2022-10-16T21:26:33.883Z,101439.28
2022-10-16T21:29:06.759Z,101430.56
2022-10-16T21:31:34.849Z,101419.97
2022-10-16T21:34:01.801Z,101421.97
2022-10-16T21:36:32.366Z,101410.22
2022-10-16T21:39:06.219Z,101396.78
2022-10-16T21:41:34.218Z,101397.78
2022-10-16T21:44:02.295Z,101401.78
2022-10-16T21:46:34.668Z,101419.28
2022-10-16T21:49:05.758Z,101420.56
2022-10-16T21:51:36.976Z,101425.38
2022-10-16T21:54:06.587Z,101422.69
2022-10-16T21:56:33.847Z,101420.06
2022-10-16T21:59:01.007Z,101417.75
2022-10-16T22:01:29.148Z,101422.06
2022-10-16T22:03:56.263Z,101410.59
2022-10-16T22:06:27.076Z,101412.00
2022-10-16T22:08:59.574Z,101426.94
2022-10-16T22:11:41.546Z,101422.75
2022-10-16T22:14:12.779Z,101413.16
2022-10-16T22:16:40.211Z,101409.72
2022-10-16T22:19:07.921Z,101405.16
2022-10-16T22:21:38.059Z,101396.16
2022-10-16T22:24:06.309Z,101389.53
2022-10-16T22:26:34.422Z,101384.22
2022-10-16T22:29:01.386Z,101385.00
2022-10-16T22:31:28.372Z,101381.81
2022-10-16T22:34:01.617Z,101387.47
2022-10-16T22:36:29.233Z,101376.63
2022-10-16T22:38:56.973Z,101381.91
2022-10-16T22:41:24.906Z,101382.66
2022-10-16T22:43:52.450Z,101384.38
2022-10-16T22:46:26.835Z,101386.34
2022-10-16T22:48:55.897Z,101384.03
2022-10-16T22:51:24.033Z,101382.56
2022-10-16T22:53:51.602Z,101371.22
2022-10-16T22:56:21.106Z,101372.34
2022-10-16T22:58:48.054Z,101349.59
2022-10-16T23:01:40.453Z,101354.41
2022-10-16T23:04:07.989Z,101346.31
2022-10-16T23:06:35.244Z,101341.25
2022-10-16T23:09:03.022Z,101353.97
2022-10-16T23:11:30.876Z,101350.38
2022-10-16T23:13:57.923Z,101349.00
2022-10-16T23:16:25.146Z,101349.75
2022-10-16T23:18:52.966Z,101343.34
2022-10-16T23:21:23.602Z,101341.50
2022-10-16T23:23:52.102Z,101345.19
2022-10-16T23:26:23.380Z,101326.59
2022-10-16T23:28:50.476Z,101326.34
2022-10-16T23:31:18.815Z,101330.91
2022-10-16T23:33:45.999Z,101319.22
2022-10-16T23:36:17.193Z,101327.09
2022-10-16T23:38:45.396Z,101328.59
2022-10-16T23:41:13.264Z,101316.66
2022-10-16T23:43:40.846Z,101325.19
2022-10-16T23:46:10.786Z,101332.28
2022-10-16T23:48:38.287Z,101340.31
2022-10-16T23:51:07.524Z,101333.16
2022-10-16T23:53:35.018Z,101340.78
2022-10-16T23:56:02.016Z,101330.84
2022-10-16T23:58:28.981Z,101333.91
